Time;durP1;ratioP1;P1;durP2;ratioP2;P2;SDS_P1;SDS_P2;PMS_P1;PMS_P2;Temp;Humidity;BMP_temperature;BMP_pressure;BME280_temperature;BME280_humidity;BME280_pressure;Samples;Min_cycle;Max_cycle;Signal;HPM_P1;HPM_P2
2023/05/09 00:01:58;;;;;;;28.40;12.55;;;;;;;13.36;100.00;101754.66;5022199;28;20689;-79
2023/05/09 00:04:24;;;;;;;30.10;13.73;;;;;;;13.34;100.00;101745.84;5021423;28;20040;-80
2023/05/09 00:06:50;;;;;;;27.83;13.02;;;;;;;13.35;100.00;101747.56;5020299;28;20488;-79
2023/05/09 00:09:16;;;;;;;25.55;12.00;;;;;;;13.35;100.00;101744.91;5005040;28;20095;-79
2023/05/09 00:11:41;;;;;;;29.55;13.27;;;;;;;13.34;100.00;101739.69;5020837;28;20073;-79
2023/05/09 00:14:07;;;;;;;30.30;13.52;;;;;;;13.33;100.00;101738.81;5022987;28;20128;-79
2023/05/09 00:16:33;;;;;;;26.50;12.70;;;;;;;13.32;100.00;101726.44;5023439;28;20024;-79
2023/05/09 00:18:59;;;;;;;27.90;13.98;;;;;;;13.33;100.00;101728.16;5020411;28;20948;-78
2023/05/09 00:21:25;;;;;;;28.80;13.20;;;;;;;13.35;100.00;101733.44;5021768;28;20432;-78
2023/05/09 00:23:56;;;;;;;27.77;14.57;;;;;;;13.35;100.00;101734.28;5022716;28;20040;-78
2023/05/09 00:26:22;;;;;;;32.85;13.95;;;;;;;13.35;100.00;101730.75;5019542;28;20030;-78
2023/05/09 00:28:48;;;;;;;31.95;14.43;;;;;;;13.36;100.00;101732.50;5024358;28;20069;-78
2023/05/09 00:31:14;;;;;;;35.10;14.98;;;;;;;13.34;100.00;101727.22;5017686;28;20043;-78
2023/05/09 00:33:39;;;;;;;31.42;15.20;;;;;;;13.34;100.00;101729.88;5023243;28;20094;-78
2023/05/09 00:36:05;;;;;;;28.55;13.32;;;;;;;13.31;100.00;101730.88;5021152;28;20041;-77
2023/05/09 00:38:31;;;;;;;35.08;14.68;;;;;;;13.29;100.00;101721.28;5018652;28;20536;-78
2023/05/09 00:40:57;;;;;;;33.85;14.60;;;;;;;13.27;100.00;101712.47;5002345;28;20041;-77
2023/05/09 00:43:22;;;;;;;32.75;13.80;;;;;;;13.26;100.00;101718.72;5019689;28;20476;-78
2023/05/09 00:45:48;;;;;;;32.33;14.48;;;;;;;13.22;100.00;101715.34;5019298;28;20820;-78
2023/05/09 00:48:15;;;;;;;31.70;14.52;;;;;;;13.22;100.00;101719.78;5019010;28;20063;-78
2023/05/09 00:50:41;;;;;;;31.40;14.43;;;;;;;13.18;100.00;101708.41;5019385;28;20037;-78
2023/05/09 00:53:07;;;;;;;31.30;13.90;;;;;;;13.17;100.00;101710.22;5018607;28;20520;-78
2023/05/09 00:55:33;;;;;;;29.65;14.20;;;;;;;13.17;100.00;101712.88;5017337;28;20898;-78
2023/05/09 00:57:59;;;;;;;35.38;15.13;;;;;;;13.16;100.00;101704.97;5020171;28;20051;-78
2023/05/09 01:00:25;;;;;;;32.65;14.27;;;;;;;13.15;100.00;101704.13;5021021;28;21645;-78
2023/05/09 01:02:53;;;;;;;33.53;14.75;;;;;;;13.14;100.00;101705.00;5004513;28;20086;-79
2023/05/09 01:05:20;;;;;;;33.58;15.45;;;;;;;13.15;100.00;101697.91;5019680;28;20075;-79
2023/05/09 01:07:58;;;;;;;36.05;14.90;;;;;;;13.14;100.00;101697.03;5015453;28;20029;-79
2023/05/09 01:10:34;;;;;;;32.00;14.30;;;;;;;13.16;100.00;101691.66;5006025;28;21290;-79
2023/05/09 01:13:07;;;;;;;33.28;14.77;;;;;;;13.17;100.00;101683.63;5019146;28;20045;-79
2023/05/09 01:16:00;;;;;;;32.42;14.13;;;;;;;13.16;100.00;101681.03;5021113;28;20051;-79
2023/05/09 01:18:34;;;;;;;34.95;15.57;;;;;;;13.16;100.00;101673.94;5021822;28;20049;-79
2023/05/09 01:21:07;;;;;;;34.22;15.32;;;;;;;13.15;100.00;101674.88;5023869;28;20040;-79
2023/05/09 01:23:35;;;;;;;;;;;;;;;13.18;100.00;101672.06;5018249;28;20025;-79
2023/05/09 01:26:04;;;;;;;32.95;14.57;;;;;;;13.14;100.00;101662.47;5024738;28;22195;-79
2023/05/09 01:28:30;;;;;;;31.42;14.00;;;;;;;13.14;100.00;101659.81;5022027;28;20049;-78
2023/05/09 01:30:56;;;;;;;34.78;14.77;;;;;;;13.13;100.00;101662.56;5018593;28;20032;-79
2023/05/09 01:33:23;;;;;;;30.52;13.98;;;;;;;13.12;100.00;101653.72;5021302;28;20472;-79
2023/05/09 01:35:51;;;;;;;33.70;15.35;;;;;;;13.11;100.00;101657.31;5021638;28;20036;-79
2023/05/09 01:38:19;;;;;;;31.95;15.40;;;;;;;13.09;100.00;101656.53;5013056;28;20042;-78
2023/05/09 01:40:48;;;;;;;31.75;14.25;;;;;;;13.09;100.00;101659.19;5021706;28;20068;-78
2023/05/09 01:43:15;;;;;;;37.10;15.45;;;;;;;13.10;100.00;101650.28;5017368;28;20033;-78
2023/05/09 01:45:43;;;;;;;36.58;14.70;;;;;;;13.11;100.00;101645.78;5018821;28;20655;-78
2023/05/09 01:48:09;;;;;;;36.80;15.63;;;;;;;13.10;100.00;101647.59;5002488;28;20058;-78
2023/05/09 01:50:36;;;;;;;38.15;15.73;;;;;;;13.11;100.00;101646.66;5021681;28;20061;-78
2023/05/09 01:53:03;;;;;;;35.30;15.10;;;;;;;13.11;100.00;101644.00;5022565;28;20148;-79
2023/05/09 01:55:31;;;;;;;37.65;15.77;;;;;;;13.12;100.00;101636.88;5015896;28;20044;-79
2023/05/09 01:57:57;;;;;;;34.95;14.80;;;;;;;13.12;100.00;101647.53;5020711;28;20033;-78
2023/05/09 02:00:23;;;;;;;31.65;15.07;;;;;;;13.14;100.00;101638.56;5002443;28;20194;-79
2023/05/09 02:02:51;;;;;;;39.40;16.55;;;;;;;13.12;100.00;101645.75;5016225;28;20044;-78
2023/05/09 02:05:17;;;;;;;32.70;15.05;;;;;;;13.11;100.00;101629.84;5023873;28;20515;-82
2023/05/09 02:07:44;;;;;;;33.45;14.35;;;;;;;13.09;100.00;101629.94;5024331;28;20036;-78
2023/05/09 02:10:11;;;;;;;35.50;15.25;;;;;;;13.07;100.00;101625.63;5021954;28;21294;-78
2023/05/09 02:12:37;;;;;;;34.85;14.73;;;;;;;13.09;100.00;101627.28;5018889;28;20037;-78
2023/05/09 02:15:04;;;;;;;41.05;16.35;;;;;;;13.12;100.00;101631.56;5023804;28;20033;-78
2023/05/09 02:17:31;;;;;;;36.40;15.30;;;;;;;13.12;100.00;101629.78;5023874;28;20145;-78
2023/05/09 02:19:56;;;;;;;34.08;15.80;;;;;;;13.13;100.00;101622.69;5021700;28;20223;-79
2023/05/09 02:22:24;;;;;;;34.53;16.25;;;;;;;13.13;100.00;101625.34;5026458;28;20701;-79
2023/05/09 02:24:50;;;;;;;37.47;16.67;;;;;;;13.13;100.00;101620.03;5022775;28;20069;-78
2023/05/09 02:27:20;;;;;;;34.28;15.45;;;;;;;13.15;100.00;101624.34;5020057;28;20128;-79
2023/05/09 02:29:48;;;;;;;38.17;15.82;;;;;;;13.15;100.00;101624.34;5040983;28;20027;-79
2023/05/09 02:32:22;;;;;;;33.30;15.48;;;;;;;13.15;100.00;101619.03;5025044;28;21306;-78
2023/05/09 02:34:50;;;;;;;41.13;15.35;;;;;;;13.17;100.00;101619.81;5020811;28;20507;-79
2023/05/09 02:37:16;;;;;;;36.75;15.50;;;;;;;13.17;100.00;101611.84;5022657;28;20059;-79
2023/05/09 02:39:41;;;;;;;39.28;16.08;;;;;;;13.20;100.00;101610.84;5002707;28;20063;-78
2023/05/09 02:42:09;;;;;;;39.50;16.40;;;;;;;13.20;100.00;101604.66;5020851;28;20037;-78
2023/05/09 02:44:35;;;;;;;36.60;15.88;;;;;;;13.20;100.00;101605.53;5006157;28;20474;-78
2023/05/09 02:47:02;;;;;;;36.25;16.17;;;;;;;13.20;100.00;101602.88;5021487;28;20043;-78
2023/05/09 02:49:27;;;;;;;36.05;16.40;;;;;;;13.17;100.00;101606.53;5023787;28;20119;-78
2023/05/09 02:51:53;;;;;;;41.83;16.95;;;;;;;13.17;100.00;101600.34;5016795;28;20047;-78
2023/05/09 02:54:18;;;;;;;40.13;17.27;;;;;;;13.16;100.00;101596.84;5025676;28;20058;-78
2023/05/09 02:56:44;;;;;;;34.25;15.65;;;;;;;13.17;100.00;101598.56;5025799;28;20036;-78
2023/05/09 02:59:09;;;;;;;36.97;15.60;;;;;;;13.17;100.00;101595.91;5022489;28;20037;-78
2023/05/09 03:01:35;;;;;;;41.90;16.13;;;;;;;13.18;100.00;101596.75;5022050;28;20029;-79
2023/05/09 03:04:01;;;;;;;43.40;17.23;;;;;;;13.16;100.00;101594.16;5024160;28;20055;-78
2023/05/09 03:06:26;;;;;;;38.90;16.67;;;;;;;13.15;100.00;101576.50;5020647;28;20492;-79
2023/05/09 03:08:52;;;;;;;42.67;17.08;;;;;;;13.14;100.00;101577.41;5025144;28;20029;-79
2023/05/09 03:11:18;;;;;;;38.03;16.98;;;;;;;13.14;100.00;101568.59;5036076;28;20116;-79
2023/05/09 03:13:43;;;;;;;37.13;16.55;;;;;;;13.13;100.00;101570.38;5017689;28;20037;-79
2023/05/09 03:16:13;;;;;;;47.13;17.17;;;;;;;13.12;100.00;101563.31;5020800;28;20045;-79
2023/05/09 03:18:39;;;;;;;37.50;16.17;;;;;;;13.13;100.00;101572.19;5024652;28;20094;-78
2023/05/09 03:21:05;;;;;;;41.30;16.65;;;;;;;13.12;100.00;101559.78;5006455;28;20555;-78
2023/05/09 03:23:31;;;;;;;39.75;16.73;;;;;;;13.13;100.00;101564.19;5020767;28;20060;-78
2023/05/09 03:25:57;;;;;;;41.58;17.40;;;;;;;13.12;100.00;101558.00;5024173;28;20060;-78
2023/05/09 03:28:23;;;;;;;43.42;17.27;;;;;;;13.14;100.00;101557.94;5020892;28;20172;-78
2023/05/09 03:30:49;;;;;;;45.35;17.08;;;;;;;13.13;100.00;101556.22;5018785;28;20136;-79
2023/05/09 03:33:14;;;;;;;47.53;17.48;;;;;;;13.13;100.00;101553.56;5020319;28;20049;-78
2023/05/09 03:35:40;;;;;;;41.47;17.33;;;;;;;13.13;100.00;101551.75;5023238;28;20381;-78
2023/05/09 03:38:06;;;;;;;41.75;16.60;;;;;;;13.13;100.00;101546.44;5024381;28;20049;-78
2023/05/09 03:40:31;;;;;;;40.88;16.17;;;;;;;13.13;100.00;101546.44;5000254;28;20079;-79
2023/05/09 03:42:57;;;;;;;39.28;17.02;;;;;;;13.14;100.00;101545.50;5023898;28;20824;-78
2023/05/09 03:45:23;;;;;;;40.83;16.95;;;;;;;13.14;100.00;101537.53;5024096;28;20043;-79
2023/05/09 03:47:49;;;;;;;44.38;17.75;;;;;;;13.15;100.00;101538.41;5021320;28;20048;-79
2023/05/09 03:50:14;;;;;;;41.70;17.23;;;;;;;13.14;100.00;101532.22;5021851;28;20102;-79
2023/05/09 03:52:40;;;;;;;40.60;16.17;;;;;;;13.15;100.00;101528.66;5022844;28;20033;-78
2023/05/09 03:55:06;;;;;;;37.05;16.88;;;;;;;13.16;100.00;101540.13;5020454;28;20069;-78
2023/05/09 03:57:34;;;;;;;39.58;16.27;;;;;;;13.13;100.00;101530.50;5024576;28;20501;-78
2023/05/09 04:00:00;;;;;;;46.63;17.38;;;;;;;13.15;100.00;101528.66;5022980;28;20037;-78
2023/05/09 04:02:25;;;;;;;41.33;17.45;;;;;;;13.14;100.00;101521.56;5022449;28;20063;-78
2023/05/09 04:04:51;;;;;;;43.47;18.25;;;;;;;13.17;100.00;101524.09;5019331;28;20532;-79
2023/05/09 04:07:18;;;;;;;46.88;18.33;;;;;;;13.18;100.00;101527.63;5021384;28;20392;-79
2023/05/09 04:09:43;;;;;;;44.20;17.85;;;;;;;13.20;100.00;101519.56;4999671;28;20541;-79
2023/05/09 04:12:09;;;;;;;42.30;17.48;;;;;;;13.20;100.00;101524.91;5018047;28;20533;-79
2023/05/09 04:14:35;;;;;;;47.38;17.73;;;;;;;13.20;100.00;101522.22;5023554;28;20511;-79
2023/05/09 04:17:00;;;;;;;43.85;18.13;;;;;;;13.22;100.00;101513.25;5021187;28;20787;-79
2023/05/09 04:19:26;;;;;;;45.45;17.63;;;;;;;13.23;100.00;101514.13;5018897;28;20440;-79
2023/05/09 04:21:52;;;;;;;41.47;17.70;;;;;;;13.23;100.00;101509.66;5023350;28;20033;-79
2023/05/09 04:24:17;;;;;;;41.25;17.00;;;;;;;13.23;100.00;101514.97;5020213;28;20040;-79
2023/05/09 04:26:43;;;;;;;45.05;17.95;;;;;;;13.23;100.00;101509.66;5015980;28;20648;-79
2023/05/09 04:29:09;;;;;;;45.17;17.83;;;;;;;13.23;100.00;101508.81;5022112;28;20545;-79
2023/05/09 04:31:34;;;;;;;43.17;17.73;;;;;;;13.22;100.00;101512.38;5019203;28;20094;-79
2023/05/09 04:34:00;;;;;;;43.42;17.77;;;;;;;13.20;100.00;101503.63;5021558;28;20048;-79
2023/05/09 04:36:26;;;;;;;45.00;19.13;;;;;;;13.20;100.00;101498.31;5017007;28;20584;-78
2023/05/09 04:38:52;;;;;;;47.10;18.00;;;;;;;13.19;100.00;101494.81;5020361;28;20049;-78
2023/05/09 04:41:17;;;;;;;47.00;18.25;;;;;;;13.20;100.00;101490.34;5023757;28;20112;-79
2023/05/09 04:43:43;;;;;;;51.20;18.23;;;;;;;13.18;100.00;101490.41;5002001;28;20033;-78
2023/05/09 04:46:09;;;;;;;52.15;19.45;;;;;;;13.18;100.00;101490.41;5026160;28;20037;-79
2023/05/09 04:48:35;;;;;;;46.10;18.35;;;;;;;13.18;100.00;101487.72;5023829;28;20029;-79
2023/05/09 04:51:01;;;;;;;48.47;19.02;;;;;;;13.18;100.00;101485.06;5026838;28;20041;-79
2023/05/09 04:53:27;;;;;;;45.97;19.10;;;;;;;13.20;100.00;101475.25;5020515;28;20034;-79
2023/05/09 04:55:55;;;;;;;51.70;19.33;;;;;;;13.20;100.00;101477.03;5025813;28;20076;-79
2023/05/09 04:58:20;;;;;;;54.63;19.83;;;;;;;13.21;100.00;101473.44;5024469;28;20037;-79
2023/05/09 05:00:46;;;;;;;54.13;19.13;;;;;;;13.22;100.00;101476.03;5021260;28;20037;-79
2023/05/09 05:03:12;;;;;;;52.55;20.33;;;;;;;13.23;100.00;101471.59;5020541;28;20060;-79
2023/05/09 05:05:39;;;;;;;54.05;19.05;;;;;;;13.24;100.00;101478.63;5018269;28;20045;-79
2023/05/09 05:08:05;;;;;;;46.55;18.55;;;;;;;13.25;100.00;101478.53;5018458;28;21330;-79
2023/05/09 05:10:30;;;;;;;54.58;20.63;;;;;;;13.27;100.00;101471.38;5022713;28;20038;-79
2023/05/09 05:12:56;;;;;;;48.05;19.65;;;;;;;13.28;100.00;101469.56;5022909;28;20037;-79
2023/05/09 05:15:25;;;;;;;58.50;20.48;;;;;;;13.33;100.00;101461.41;5020987;28;20402;-79
2023/05/09 05:17:51;;;;;;;52.30;20.25;;;;;;;13.37;100.00;101460.28;5019590;28;20557;-79
2023/05/09 05:20:16;;;;;;;50.08;19.80;;;;;;;13.40;100.00;101463.66;5001032;28;20036;-79
2023/05/09 05:22:42;;;;;;;52.83;20.95;;;;;;;13.48;100.00;101462.47;5016106;28;20055;-78
2023/05/09 05:25:08;;;;;;;54.10;20.55;;;;;;;13.55;100.00;101453.25;5019262;28;20502;-78
2023/05/09 05:27:34;;;;;;;55.40;20.17;;;;;;;13.59;100.00;101452.19;5019590;28;21165;-78
2023/05/09 05:30:00;;;;;;;54.28;21.42;;;;;;;13.64;100.00;101449.28;5036092;28;20041;-78
2023/05/09 05:32:25;;;;;;;56.80;20.52;;;;;;;13.66;100.00;101445.63;5019536;28;20041;-78
2023/05/09 05:34:51;;;;;;;51.25;20.48;;;;;;;13.71;100.00;101434.75;5020846;28;20033;-78
2023/05/09 05:37:16;;;;;;;58.75;21.48;;;;;;;13.73;100.00;101438.19;5025399;28;20963;-78
2023/05/09 05:39:42;;;;;;;59.40;21.90;;;;;;;13.77;100.00;101438.94;5023113;28;20037;-78
2023/05/09 05:42:08;;;;;;;53.95;22.48;;;;;;;13.79;100.00;101434.38;5023191;28;20155;-78
2023/05/09 05:44:33;;;;;;;58.28;22.75;;;;;;;13.83;100.00;101430.59;5026847;28;20091;-79
2023/05/09 05:46:59;;;;;;;52.70;22.00;;;;;;;13.87;100.00;101433.97;5025345;28;20112;-79
2023/05/09 05:49:25;;;;;;;59.42;23.33;;;;;;;13.89;100.00;101432.13;5019088;28;20416;-79
2023/05/09 05:51:50;;;;;;;61.33;21.52;;;;;;;13.90;100.00;101429.38;5025795;28;20082;-79
2023/05/09 05:54:16;;;;;;;56.45;22.65;;;;;;;13.93;100.00;101429.22;5024231;28;20066;-79
2023/05/09 05:56:42;;;;;;;61.00;22.63;;;;;;;13.96;100.00;101420.22;5025773;28;20145;-79
2023/05/09 05:59:07;;;;;;;59.65;24.08;;;;;;;13.99;100.00;101428.91;5020855;28;21046;-79
2023/05/09 06:01:33;;;;;;;52.67;23.30;;;;;;;14.02;100.00;101421.72;5027252;28;20037;-78
2023/05/09 06:03:59;;;;;;;63.88;23.73;;;;;;;14.06;100.00;101421.47;4993816;28;20029;-79
2023/05/09 06:06:25;;;;;;;58.38;24.23;;;;;;;14.12;100.00;101417.66;5021908;28;20151;-79
2023/05/09 06:08:51;;;;;;;59.63;23.38;;;;;;;14.18;100.00;101416.47;5026003;28;20025;-79
2023/05/09 06:11:17;;;;;;;60.53;24.25;;;;;;;14.23;100.00;101420.59;5035794;28;20133;-78
2023/05/09 06:13:42;;;;;;;57.33;23.52;;;;;;;14.29;100.00;101410.56;5016710;28;20029;-77
2023/05/09 06:16:08;;;;;;;55.33;23.83;;;;;;;14.35;100.00;101399.59;5017758;28;20032;-80
2023/05/09 06:18:36;;;;;;;57.05;23.50;;;;;;;14.39;100.00;101404.69;5023405;28;20078;-80
2023/05/09 06:21:08;;;;;;;58.35;23.55;;;;;;;14.44;100.00;101399.09;5017142;28;20080;-78
2023/05/09 06:23:35;;;;;;;59.27;24.60;;;;;;;14.46;100.00;101402.56;5028837;28;20033;-80
2023/05/09 06:26:02;;;;;;;56.58;23.80;;;;;;;14.48;100.00;101394.47;5029784;28;20036;-79
2023/05/09 06:28:28;;;;;;;60.58;24.15;;;;;;;14.53;100.00;101389.78;5007092;28;20041;-79
2023/05/09 06:30:54;;;;;;;51.67;22.15;;;;;;;14.54;100.00;101391.47;5027187;28;20605;-78
2023/05/09 06:33:19;;;;;;;62.35;24.92;;;;;;;14.57;100.00;101391.34;5029632;28;20075;-78
2023/05/09 06:35:45;;;;;;;58.55;24.75;;;;;;;14.61;100.00;101386.69;5029839;28;20124;-78
2023/05/09 06:38:11;;;;;;;55.22;23.77;;;;;;;14.64;100.00;101378.53;5030020;28;21953;-79
2023/05/09 06:40:36;;;;;;;58.30;23.05;;;;;;;14.67;100.00;101373.06;5026337;28;20072;-79
2023/05/09 06:43:02;;;;;;;59.03;23.15;;;;;;;14.71;100.00;101376.41;5007826;28;20040;-79
2023/05/09 06:45:27;;;;;;;61.72;24.63;;;;;;;14.72;100.00;101363.00;5024803;28;20041;-78
2023/05/09 06:47:53;;;;;;;68.25;24.63;;;;;;;14.77;100.00;101365.44;5004034;28;20396;-79
2023/05/09 06:50:19;;;;;;;57.03;24.08;;;;;;;14.82;100.00;101363.38;5025209;28;20120;-78
2023/05/09 06:52:44;;;;;;;58.33;23.83;;;;;;;14.86;100.00;101361.41;5026710;28;20037;-79
2023/05/09 06:55:10;;;;;;;62.42;24.75;;;;;;;14.90;100.00;101346.94;5026105;28;20044;-79
2023/05/09 06:57:35;;;;;;;59.35;23.95;;;;;;;14.98;100.00;101357.19;5025155;28;20128;-79
2023/05/09 07:00:01;;;;;;;61.15;24.30;;;;;;;15.00;100.00;101356.19;5011510;28;20313;-78
2023/05/09 07:02:27;;;;;;;59.85;24.65;;;;;;;15.05;100.00;101350.56;5018945;28;20064;-79
2023/05/09 07:04:52;;;;;;;51.42;23.45;;;;;;;15.10;100.00;101359.19;5018313;28;20087;-80
2023/05/09 07:07:18;;;;;;;54.50;22.98;;;;;;;15.10;100.00;101347.66;5020285;28;20029;-80
2023/05/09 07:09:43;;;;;;;50.92;22.65;;;;;;;15.11;100.00;101342.22;5022763;28;20464;-79
2023/05/09 07:12:09;;;;;;;51.15;22.30;;;;;;;15.14;100.00;101339.38;5016594;28;20028;-79
2023/05/09 07:14:35;;;;;;;47.63;20.88;;;;;;;15.17;100.00;101335.69;5023312;28;20049;-78
2023/05/09 07:17:00;;;;;;;52.05;22.42;;;;;;;15.19;100.00;101329.31;5016457;28;20056;-78
2023/05/09 07:19:26;;;;;;;47.72;21.48;;;;;;;15.21;100.00;101329.22;5020034;28;20741;-78
2023/05/09 07:21:54;;;;;;;51.45;21.63;;;;;;;15.19;100.00;101320.44;5023730;28;20040;-77
2023/05/09 07:24:20;;;;;;;49.78;21.88;;;;;;;15.18;100.00;101322.25;5020739;28;20439;-78
2023/05/09 07:26:45;;;;;;;45.50;21.45;;;;;;;15.17;100.00;101319.69;5022885;28;20614;-79
2023/05/09 07:29:11;;;;;;;51.97;22.08;;;;;;;15.20;100.00;101325.69;5018717;28;20053;-81
2023/05/09 07:31:37;;;;;;;46.08;21.13;;;;;;;15.19;100.00;101326.66;5022333;28;20033;-80
2023/05/09 07:34:02;;;;;;;49.05;20.92;;;;;;;15.16;100.00;101326.81;5023060;28;20033;-77
2023/05/09 07:36:28;;;;;;;49.08;21.73;;;;;;;15.14;100.00;101319.88;5021825;28;20053;-80
2023/05/09 07:38:53;;;;;;;44.15;21.52;;;;;;;15.14;100.00;101314.53;5005971;28;20036;-78
2023/05/09 07:41:19;;;;;;;46.58;21.85;;;;;;;15.12;100.00;101317.28;5024536;28;20120;-77
2023/05/09 07:43:47;;;;;;;44.55;20.77;;;;;;;15.13;100.00;101307.47;5015198;28;22017;-78
2023/05/09 07:46:15;;;;;;;45.10;19.85;;;;;;;15.11;100.00;101306.69;5006558;28;20055;-78
2023/05/09 07:48:40;;;;;;;49.05;21.10;;;;;;;15.12;100.00;101311.94;5020958;28;20033;-78
2023/05/09 07:51:06;;;;;;;42.72;19.45;;;;;;;15.16;100.00;101308.13;5022376;28;20057;-77
2023/05/09 07:53:34;;;;;;;41.20;19.42;;;;;;;15.14;100.00;101296.72;5020192;28;20033;-78
2023/05/09 07:55:59;;;;;;;44.00;19.58;;;;;;;15.17;100.00;101295.69;5023551;28;20064;-78
2023/05/09 07:58:25;;;;;;;38.67;18.83;;;;;;;15.18;100.00;101298.25;5021371;28;21052;-78
2023/05/09 08:00:50;;;;;;;38.90;19.13;;;;;;;15.20;100.00;101292.84;5019698;28;20739;-78
2023/05/09 08:03:16;;;;;;;39.78;18.95;;;;;;;15.21;100.00;101292.75;5022479;28;20037;-77
2023/05/09 08:05:41;;;;;;;40.85;19.38;;;;;;;15.23;100.00;101298.00;5020462;28;20061;-78
2023/05/09 08:08:15;;;;;;;41.55;20.38;;;;;;;15.22;100.00;101285.59;5018638;28;20793;-78
2023/05/09 08:10:40;;;;;;;41.03;17.92;;;;;;;15.21;100.00;101283.91;5033753;28;20431;-78
2023/05/09 08:13:13;;;;;;;39.28;18.58;;;;;;;15.19;100.00;101285.78;5020364;28;20123;-77
2023/05/09 08:15:39;;;;;;;42.00;18.65;;;;;;;15.21;100.00;101283.91;5004531;28;20040;-76
2023/05/09 08:18:09;;;;;;;40.08;18.55;;;;;;;15.21;100.00;101271.41;5016132;28;20071;-76
2023/05/09 08:20:36;;;;;;;38.47;17.08;;;;;;;15.24;100.00;101278.38;5002422;28;21957;-77
2023/05/09 08:23:01;;;;;;;43.22;18.63;;;;;;;15.26;100.00;101271.13;5021459;28;20043;-77
2023/05/09 08:25:28;;;;;;;35.90;17.65;;;;;;;15.31;100.00;101274.38;5017360;28;20037;-77
2023/05/09 08:27:54;;;;;;;39.45;17.38;;;;;;;15.38;100.00;101272.25;5017521;28;20049;-77
2023/05/09 08:30:22;;;;;;;37.17;16.83;;;;;;;15.44;100.00;101266.53;5019738;28;20056;-77
2023/05/09 08:32:48;;;;;;;34.13;17.70;;;;;;;15.50;100.00;101267.09;5017108;28;20049;-78
2023/05/09 08:35:13;;;;;;;35.95;17.30;;;;;;;15.54;100.00;101261.53;5022915;28;20044;-78
2023/05/09 08:37:39;;;;;;;39.17;17.85;;;;;;;15.59;100.00;101251.41;5019772;28;20037;-78
2023/05/09 08:40:09;;;;;;;35.92;16.60;;;;;;;15.65;100.00;101252.88;5018592;28;20032;-78
2023/05/09 08:42:35;;;;;;;35.97;17.35;;;;;;;15.70;100.00;101252.56;5015931;28;20045;-78
2023/05/09 08:45:06;;;;;;;35.33;16.40;;;;;;;15.77;100.00;101248.56;5014658;28;20908;-77
2023/05/09 08:47:36;;;;;;;30.75;15.60;;;;;;;15.80;100.00;101248.38;5006408;28;20033;-77
2023/05/09 08:50:03;;;;;;;29.60;14.48;;;;;;;15.84;100.00;101246.38;4999245;28;20086;-77
2023/05/09 08:52:32;;;;;;;31.30;14.77;;;;;;;15.88;100.00;101239.91;5019887;28;20284;-78
2023/05/09 08:55:03;;;;;;;31.17;15.20;;;;;;;15.92;100.00;101248.63;5019299;28;20056;-78
2023/05/09 08:57:31;;;;;;;28.83;14.20;;;;;;;15.96;100.00;101242.16;5017312;28;21036;-78
2023/05/09 08:59:57;;;;;;;27.63;14.60;;;;;;;15.98;100.00;101230.41;5017628;28;21424;-78
2023/05/09 09:02:23;;;;;;;27.63;14.00;;;;;;;15.99;100.00;101231.25;5018949;28;20029;-77
2023/05/09 09:04:49;;;;;;;29.65;14.48;;;;;;;16.05;100.00;101220.19;5020623;28;20039;-78
2023/05/09 09:07:15;;;;;;;28.63;13.57;;;;;;;16.12;100.00;101221.53;5021357;28;20507;-78
2023/05/09 09:09:46;;;;;;;23.30;12.35;;;;;;;16.17;100.00;101223.91;5022781;28;20045;-84
2023/05/09 09:12:13;;;;;;;24.95;13.77;;;;;;;16.25;100.00;101218.09;5006344;28;20071;-79
2023/05/09 09:14:41;;;;;;;25.30;12.73;;;;;;;16.31;100.00;101230.19;4999482;28;20051;-79
2023/05/09 09:17:10;;;;;;;25.13;13.02;;;;;;;16.33;100.00;101217.59;5023026;28;21001;-79
2023/05/09 09:19:39;;;;;;;19.92;12.15;;;;;;;16.36;100.00;101215.59;5006932;28;21508;-79
2023/05/09 09:22:05;;;;;;;25.35;12.73;;;;;;;16.46;100.00;101213.19;5022021;28;20029;-79
2023/05/09 09:24:31;;;;;;;22.27;11.90;;;;;;;16.52;100.00;101211.91;5021517;28;20037;-78
2023/05/09 09:27:05;;;;;;;22.58;11.63;;;;;;;16.57;100.00;101207.16;5024930;28;20400;-80
2023/05/09 09:29:32;;;;;;;21.15;11.63;;;;;;;16.62;100.00;101202.34;5021820;28;20765;-81
2023/05/09 09:32:01;;;;;;;21.88;11.63;;;;;;;16.66;100.00;101193.16;5037814;28;20542;-81
2023/05/09 09:34:27;;;;;;;20.27;10.75;;;;;;;16.72;100.00;101196.41;5020229;28;20657;-80
2023/05/09 09:36:56;;;;;;;18.10;11.43;;;;;;;16.76;100.00;101197.91;5025768;28;20101;-78
2023/05/09 09:39:22;;;;;;;20.10;11.00;;;;;;;16.78;100.00;101190.66;5005419;28;20048;-81
2023/05/09 09:41:48;;;;;;;20.75;10.68;;;;;;;16.80;100.00;101191.41;5025541;28;20473;-79
2023/05/09 09:44:14;;;;;;;17.15;10.45;;;;;;;16.78;100.00;101190.66;5022571;28;20065;-79
2023/05/09 09:46:59;;;;;;;18.98;11.20;;;;;;;16.76;100.00;101190.75;5007273;28;20043;-80
2023/05/09 09:49:25;;;;;;;20.90;11.25;;;;;;;16.73;100.00;101198.97;5028804;28;20041;-81
2023/05/09 09:51:53;;;;;;;19.67;11.45;;;;;;;16.75;100.00;101191.72;5022474;28;20037;-80
2023/05/09 09:54:19;;;;;;;18.85;10.95;;;;;;;16.76;100.00;101185.41;5025854;28;21310;-79
2023/05/09 09:56:49;;;;;;;22.27;11.15;;;;;;;16.78;100.00;101191.50;5023871;28;20037;-82
2023/05/09 09:59:16;;;;;;;24.40;11.77;;;;;;;16.78;100.00;101183.47;4991895;28;20068;-78
2023/05/09 10:02:05;;;;;;;22.25;11.25;;;;;;;16.80;100.00;101183.38;5025134;28;20503;-80
2023/05/09 10:04:33;;;;;;;18.58;11.02;;;;;;;16.84;100.00;101176.88;5021854;28;20171;-79
2023/05/09 10:07:04;;;;;;;20.38;12.32;;;;;;;16.82;100.00;101179.63;5007566;28;20048;-79
2023/05/09 10:09:31;;;;;;;19.30;11.23;;;;;;;16.81;100.00;101182.41;5018485;28;20067;-80
2023/05/09 10:12:05;;;;;;;21.65;12.07;;;;;;;16.79;100.00;101176.31;5021063;28;20068;-79
2023/05/09 10:14:32;;;;;;;19.83;11.35;;;;;;;16.74;100.00;101178.44;5021500;28;20037;-80
2023/05/09 10:17:00;;;;;;;22.13;12.38;;;;;;;16.72;100.00;101175.00;5006096;28;20065;-79
2023/05/09 10:19:30;;;;;;;21.73;11.55;;;;;;;16.69;100.00;101182.25;5024177;28;20037;-79
2023/05/09 10:22:01;;;;;;;23.15;13.52;;;;;;;16.69;100.00;101176.91;5022614;28;21134;-80
2023/05/09 10:24:32;;;;;;;21.05;12.57;;;;;;;16.68;100.00;101179.72;5022494;28;20044;-80
2023/05/09 10:27:06;;;;;;;23.58;12.10;;;;;;;16.65;100.00;101180.75;5022758;28;20040;-80
2023/05/09 10:29:37;;;;;;;23.00;13.23;;;;;;;16.63;100.00;101176.47;5037676;28;20041;-80
2023/05/09 10:32:27;;;;;;;22.70;13.15;;;;;;;16.55;100.00;101175.16;5003655;28;20052;-79
2023/05/09 10:35:04;;;;;;;25.60;12.68;;;;;;;16.43;100.00;101175.97;5023616;28;20416;-80
2023/05/09 10:37:30;;;;;;;24.70;12.57;;;;;;;16.32;100.00;101181.13;5007100;28;20041;-79
2023/05/09 10:39:56;;;;;;;21.73;12.65;;;;;;;16.23;100.00;101175.44;5021433;28;20102;-80
2023/05/09 10:42:23;;;;;;;22.45;12.80;;;;;;;16.15;100.00;101177.75;5006132;28;20559;-79
2023/05/09 10:44:52;;;;;;;20.52;12.05;;;;;;;16.01;100.00;101167.94;5022271;28;20047;-79
2023/05/09 10:47:18;;;;;;;21.77;12.82;;;;;;;15.89;100.00;101178.41;5019910;28;20142;-79
2023/05/09 10:49:45;;;;;;;20.13;11.88;;;;;;;15.82;100.00;101171.75;5022173;28;20041;-80
2023/05/09 10:52:11;;;;;;;22.25;12.75;;;;;;;15.72;100.00;101165.25;5019653;28;20064;-87
2023/05/09 10:54:37;;;;;;;21.08;12.02;;;;;;;15.63;100.00;101169.34;5020376;28;20904;-81
2023/05/09 10:57:05;;;;;;;24.60;12.52;;;;;;;15.60;100.00;101161.53;5020755;28;20033;-81
2023/05/09 10:59:39;;;;;;;20.17;12.57;;;;;;;15.65;100.00;101158.59;5023812;28;20033;-80
2023/05/09 11:02:10;;;;;;;24.92;13.48;;;;;;;15.67;100.00;101165.53;5030184;28;20137;-81